Time;durP1;ratioP1;P1;durP2;ratioP2;P2;SDS_P1;SDS_P2;PMS_P1;PMS_P2;Temp;Humidity;BMP_temperature;BMP_pressure;BME280_temperature;BME280_humidity;BME280_pressure;Samples;Min_cycle;Max_cycle;Signal;HPM_P1;HPM_P2
2023/01/27 00:00:26;;;;;;;87.70;20.17;;;3.60;99.90;;;;;;4978888;28;20259;-81
2023/01/27 00:02:55;;;;;;;90.85;18.05;;;3.60;99.90;;;;;;4980414;28;20171;-81
2023/01/27 00:05:31;;;;;;;94.28;20.58;;;3.60;99.90;;;;;;4980696;28;20198;-81
2023/01/27 00:07:59;;;;;;;96.70;22.27;;;3.60;99.90;;;;;;4980647;28;20151;-81
2023/01/27 00:10:32;;;;;;;91.70;20.40;;;3.60;99.90;;;;;;4980291;28;20179;-81
2023/01/27 00:15:42;;;;;;;89.63;19.38;;;3.60;99.90;;;;;;4979712;28;20159;-81
2023/01/27 00:18:24;;;;;;;89.10;20.20;;;3.60;99.90;;;;;;4978406;28;20175;-81
2023/01/27 00:24:40;;;;;;;91.88;18.88;;;3.60;99.90;;;;;;4980201;28;20167;-81
2023/01/27 00:34:15;;;;;;;80.85;13.95;;;3.60;99.90;;;;;;4979039;28;20178;-81
2023/01/27 00:36:51;;;;;;;100.82;17.05;;;3.60;99.90;;;;;;4962801;28;20261;-81
2023/01/27 00:39:19;;;;;;;84.00;13.98;;;3.50;99.90;;;;;;4980157;28;20182;-81
2023/01/27 00:42:14;;;;;;;88.78;15.45;;;3.50;99.90;;;;;;4979698;28;20179;-81
2023/01/27 00:45:47;;;;;;;89.40;17.85;;;3.50;99.90;;;;;;4977965;28;20270;-81
2023/01/27 00:47:30;;;;;;;86.90;20.33;;;3.40;99.90;;;;;;4979767;28;20159;-81
2023/01/27 00:50:02;;;;;;;89.40;16.75;;;3.50;99.90;;;;;;4979403;28;20531;-81
2023/01/27 00:52:28;;;;;;;90.97;17.98;;;3.50;99.90;;;;;;4979429;28;20152;-81
2023/01/27 00:54:54;;;;;;;93.77;18.87;;;3.50;99.90;;;;;;4978242;28;20182;-81
2023/01/27 00:57:30;;;;;;;95.73;19.93;;;3.40;99.90;;;;;;4979423;28;20317;-81
2023/01/27 00:59:56;;;;;;;94.40;18.58;;;3.50;99.90;;;;;;4978995;28;20151;-81
2023/01/27 01:02:22;;;;;;;85.97;19.17;;;3.50;99.90;;;;;;4979524;28;20174;-81
2023/01/27 01:04:47;;;;;;;91.50;17.00;;;3.50;99.90;;;;;;4979138;28;20194;-81
2023/01/27 01:07:13;;;;;;;93.57;17.97;;;3.50;99.90;;;;;;4978400;28;20167;-81
2023/01/27 01:09:44;;;;;;;92.95;19.63;;;3.50;99.90;;;;;;4979209;28;20195;-82
2023/01/27 01:12:12;;;;;;;83.45;18.27;;;3.50;99.90;;;;;;4979453;28;20187;-81
2023/01/27 01:14:38;;;;;;;94.95;19.60;;;3.50;99.90;;;;;;4979101;28;20726;-81
2023/01/27 01:17:10;;;;;;;88.93;19.67;;;3.50;99.90;;;;;;4977844;28;20214;-82
2023/01/27 01:19:36;;;;;;;86.88;18.35;;;3.50;99.90;;;;;;4979314;28;20179;-81
2023/01/27 01:22:10;;;;;;;84.70;20.67;;;3.60;99.90;;;;;;4977458;28;20194;-82
2023/01/27 01:24:41;;;;;;;93.13;19.67;;;3.50;99.90;;;;;;4979185;28;20449;-82
2023/01/27 01:27:10;;;;;;;90.88;20.77;;;3.60;99.90;;;;;;4979354;28;20186;-82
2023/01/27 01:29:41;;;;;;;86.20;18.95;;;3.60;99.90;;;;;;4977702;28;20693;-82
2023/01/27 01:32:10;;;;;;;90.20;21.85;;;3.60;99.90;;;;;;4978559;28;20194;-82
2023/01/27 01:34:42;;;;;;;85.20;20.50;;;3.60;99.90;;;;;;4979145;28;20175;-81
2023/01/27 01:37:08;;;;;;;93.85;23.13;;;3.60;99.90;;;;;;4979232;28;20160;-82
2023/01/27 01:39:39;;;;;;;93.00;22.17;;;3.60;99.90;;;;;;4977906;28;20178;-82
2023/01/27 01:42:05;;;;;;;96.82;21.45;;;3.60;99.90;;;;;;4978909;28;20250;-82
2023/01/27 01:44:35;;;;;;;94.63;21.20;;;3.60;99.90;;;;;;4977811;28;20190;-82
2023/01/27 01:47:04;;;;;;;85.07;21.10;;;3.60;99.90;;;;;;4979704;28;20146;-82
2023/01/27 01:49:38;;;;;;;92.55;22.92;;;3.60;99.90;;;;;;4979247;28;20190;-82
2023/01/27 01:52:10;;;;;;;97.47;23.52;;;3.60;99.90;;;;;;4979024;28;20183;-82
2023/01/27 01:54:48;;;;;;;97.25;24.13;;;3.60;99.90;;;;;;4978763;28;20239;-82
2023/01/27 01:57:23;;;;;;;90.90;23.90;;;3.60;99.90;;;;;;4979731;28;20230;-82
2023/01/27 01:59:54;;;;;;;90.38;20.45;;;3.60;99.90;;;;;;4979117;28;20206;-82
2023/01/27 02:02:30;;;;;;;92.45;21.80;;;3.60;99.90;;;;;;4978579;28;20171;-82
2023/01/27 02:05:10;;;;;;;94.00;27.73;;;3.60;99.90;;;;;;4978262;28;20274;-82
2023/01/27 02:08:05;;;;;;;93.75;24.80;;;3.70;99.90;;;;;;4979162;28;20147;-82
2023/01/27 02:10:32;;;;;;;93.82;21.42;;;3.70;99.90;;;;;;4979038;28;20187;-82
2023/01/27 02:12:58;;;;;;;91.07;24.48;;;3.60;99.90;;;;;;4979013;28;20531;-82
2023/01/27 02:15:24;;;;;;;89.80;21.67;;;3.60;99.90;;;;;;4978012;28;20175;-82
2023/01/27 02:17:49;;;;;;;90.30;22.60;;;3.60;99.90;;;;;;4978765;28;20179;-82
2023/01/27 02:20:24;;;;;;;89.47;21.87;;;3.60;99.90;;;;;;4979534;28;20438;-82
2023/01/27 02:23:28;;;;;;;88.18;18.08;;;3.70;99.90;;;;;;4979324;28;20155;-82
2023/01/27 02:26:18;;;;;;;87.20;19.63;;;3.70;99.90;;;;;;4979249;28;20191;-82
2023/01/27 02:28:44;;;;;;;91.50;19.67;;;3.70;99.90;;;;;;4977775;28;20670;-82
2023/01/27 02:31:10;;;;;;;84.25;18.00;;;3.60;99.90;;;;;;4979445;28;20187;-82
2023/01/27 02:33:36;;;;;;;85.90;18.97;;;3.70;99.90;;;;;;4980199;28;20508;-82
2023/01/27 02:36:04;;;;;;;88.47;19.20;;;3.70;99.90;;;;;;4982791;28;20421;-82
2023/01/27 02:38:46;;;;;;;89.75;18.05;;;3.70;99.90;;;;;;4982963;28;20226;-82
2023/01/27 02:41:39;;;;;;;83.07;16.83;;;3.70;99.90;;;;;;4981442;28;20191;-82
2023/01/27 02:44:06;;;;;;;85.55;16.90;;;3.70;99.90;;;;;;4983035;28;20151;-82
2023/01/27 02:46:32;;;;;;;85.05;16.20;;;3.70;99.90;;;;;;4983140;28;20177;-82
2023/01/27 02:48:57;;;;;;;90.80;18.53;;;3.70;99.90;;;;;;4982866;28;20163;-82
2023/01/27 02:51:23;;;;;;;93.30;14.40;;;3.70;99.90;;;;;;4981246;28;20437;-82
2023/01/27 02:53:48;;;;;;;85.10;17.17;;;3.70;99.90;;;;;;4982931;28;20535;-82
2023/01/27 02:56:14;;;;;;;79.27;13.70;;;3.60;99.90;;;;;;4982249;28;20167;-82
2023/01/27 02:58:40;;;;;;;78.97;13.33;;;3.70;99.90;;;;;;4982584;28;20178;-82
2023/01/27 03:01:06;;;;;;;84.80;14.63;;;3.70;99.90;;;;;;4982057;28;20183;-82
2023/01/27 03:03:32;;;;;;;86.07;16.08;;;3.70;99.90;;;;;;4982574;28;20166;-82
2023/01/27 03:05:57;;;;;;;87.10;15.23;;;3.70;99.90;;;;;;4982586;28;20195;-82
2023/01/27 03:08:23;;;;;;;88.70;15.37;;;3.70;99.90;;;;;;4983203;28;20246;-82
2023/01/27 03:10:50;;;;;;;77.40;14.13;;;3.70;99.90;;;;;;4982727;28;20179;-83
2023/01/27 03:13:19;;;;;;;80.32;14.80;;;3.70;99.90;;;;;;4982618;28;20163;-82
2023/01/27 03:18:29;;;;;;;76.95;13.15;;;3.70;99.90;;;;;;4982568;28;20157;-82
2023/01/27 03:21:01;;;;;;;74.63;12.00;;;3.70;99.90;;;;;;4980918;28;20738;-82
2023/01/27 03:23:26;;;;;;;77.72;11.73;;;3.70;99.90;;;;;;4982426;28;20163;-82
2023/01/27 03:25:52;;;;;;;77.77;10.87;;;3.70;99.90;;;;;;4981943;28;20187;-82
2023/01/27 03:28:18;;;;;;;74.50;12.53;;;3.60;99.90;;;;;;4982082;28;20402;-82
2023/01/27 03:30:43;;;;;;;73.43;11.17;;;3.70;99.90;;;;;;4982134;28;20187;-82
2023/01/27 03:33:09;;;;;;;74.83;10.10;;;3.70;99.90;;;;;;4982363;28;20678;-82
2023/01/27 03:35:47;;;;;;;76.03;10.70;;;3.60;99.90;;;;;;4982585;28;20175;-82
2023/01/27 03:46:31;;;;;;;69.50;7.63;;;3.70;99.90;;;;;;4982376;28;20307;-82
2023/01/27 03:48:58;;;;;;;68.57;7.90;;;3.70;99.90;;;;;;4981937;28;20301;-82
2023/01/27 03:51:25;;;;;;;70.20;8.50;;;3.70;99.90;;;;;;4982073;28;20599;-82
2023/01/27 03:53:51;;;;;;;68.43;8.77;;;3.60;99.90;;;;;;4981586;28;20163;-82
2023/01/27 03:56:18;;;;;;;74.85;8.35;;;3.60;99.90;;;;;;4981861;28;20171;-82
2023/01/27 03:58:44;;;;;;;69.07;7.90;;;3.60;99.90;;;;;;4982366;28;20596;-82
2023/01/27 04:01:19;;;;;;;71.25;8.23;;;3.60;99.90;;;;;;4981891;28;20570;-82
2023/01/27 04:09:20;;;;;;;68.60;7.50;;;3.50;99.90;;;;;;4982484;28;20567;-82
2023/01/27 04:11:59;;;;;;;71.85;8.93;;;3.60;99.90;;;;;;4980660;28;20217;-82
2023/01/27 04:14:34;;;;;;;71.15;8.63;;;3.60;99.90;;;;;;4982001;28;20144;-82
2023/01/27 04:17:02;;;;;;;70.22;10.43;;;3.60;99.90;;;;;;4964395;28;20183;-82
2023/01/27 04:19:28;;;;;;;69.80;10.90;;;3.60;99.90;;;;;;4981457;28;20167;-82
2023/01/27 04:21:55;;;;;;;73.80;9.55;;;3.60;99.90;;;;;;4981570;28;20187;-82
2023/01/27 04:24:23;;;;;;;72.50;10.70;;;3.60;99.90;;;;;;4981932;28;20626;-82
2023/01/27 04:27:06;;;;;;;71.28;10.25;;;3.60;99.90;;;;;;4981559;28;20168;-82
2023/01/27 04:29:34;;;;;;;69.03;8.73;;;3.60;99.90;;;;;;4980628;28;20531;-82
2023/01/27 04:32:00;;;;;;;75.30;11.63;;;3.60;99.90;;;;;;4963899;28;20249;-82
2023/01/27 04:34:27;;;;;;;72.17;10.40;;;3.60;99.90;;;;;;4981128;28;20175;-82
2023/01/27 04:36:53;;;;;;;71.78;9.27;;;3.60;99.90;;;;;;4981265;28;20422;-82
2023/01/27 04:39:19;;;;;;;76.70;11.80;;;3.70;99.90;;;;;;4981733;28;20167;-83
2023/01/27 04:41:45;;;;;;;73.07;11.57;;;3.70;99.90;;;;;;4981573;28;20254;-82
2023/01/27 04:44:11;;;;;;;73.70;9.57;;;3.60;99.90;;;;;;4979966;28;20243;-82
2023/01/27 04:46:37;;;;;;;77.68;11.98;;;3.50;99.90;;;;;;4981478;28;20167;-82
2023/01/27 04:49:04;;;;;;;72.43;11.02;;;3.50;99.90;;;;;;4982168;28;20195;-82
2023/01/27 04:51:30;;;;;;;73.97;10.13;;;3.40;99.90;;;;;;4981882;28;20187;-82
2023/01/27 04:53:56;;;;;;;72.07;9.70;;;3.40;99.90;;;;;;4980570;28;20249;-82
2023/01/27 04:56:36;;;;;;;75.80;9.73;;;3.40;99.90;;;;;;4963220;28;20175;-82
2023/01/27 04:59:04;;;;;;;74.80;9.95;;;3.40;99.90;;;;;;4979477;28;20210;-82
2023/01/27 05:01:30;;;;;;;75.22;10.43;;;3.40;99.90;;;;;;4980758;28;20191;-82
2023/01/27 05:03:57;;;;;;;73.35;10.32;;;3.40;99.90;;;;;;4980762;28;20650;-82
2023/01/27 05:06:23;;;;;;;74.95;10.90;;;3.40;99.90;;;;;;4981371;28;20194;-82
2023/01/27 05:08:49;;;;;;;73.18;10.60;;;3.40;99.90;;;;;;4981368;28;20172;-82
2023/01/27 05:11:15;;;;;;;75.07;10.77;;;3.40;99.90;;;;;;4963534;28;20191;-82
2023/01/27 05:13:41;;;;;;;74.70;11.07;;;3.50;99.90;;;;;;4981167;28;20167;-82
2023/01/27 05:16:10;;;;;;;74.50;9.67;;;3.40;99.90;;;;;;4980649;28;20163;-82
2023/01/27 05:18:40;;;;;;;71.75;9.73;;;3.50;99.90;;;;;;4979477;28;20177;-82
2023/01/27 05:21:17;;;;;;;76.32;10.20;;;3.40;99.90;;;;;;5055737;23;20277;-82
2023/01/27 05:23:48;;;;;;;74.05;9.98;;;3.50;99.90;;;;;;5000245;28;20553;-82
2023/01/27 05:26:26;;;;;;;82.95;11.38;;;3.40;99.90;;;;;;4982338;28;20190;-82
2023/01/27 05:29:05;;;;;;;77.70;10.27;;;3.40;99.90;;;;;;5071082;22;20214;-86
2023/01/27 05:31:53;;;;;;;;;;;;;;;;;;;;;
2023/01/27 05:34:52;;;;;;;74.70;10.48;;;3.50;99.90;;;;;;5000439;28;20203;-86
2023/01/27 05:37:36;;;;;;;74.18;9.55;;;3.50;99.90;;;;;;5000298;28;20194;-86
2023/01/27 05:40:12;;;;;;;77.50;11.50;;;3.40;99.90;;;;;;4999834;28;20178;-86
2023/01/27 05:43:03;;;;;;;73.53;10.70;;;3.40;99.90;;;;;;5000745;28;20630;-86
2023/01/27 05:45:29;;;;;;;76.65;10.35;;;3.40;99.90;;;;;;4999344;28;20222;-86
2023/01/27 05:48:02;;;;;;;75.67;10.27;;;3.50;99.90;;;;;;5000081;28;20174;-85
2023/01/27 05:50:57;;;;;;;72.00;9.95;;;3.40;99.90;;;;;;4999952;28;20875;-86
2023/01/27 05:56:39;;;;;;;74.38;10.35;;;3.40;99.90;;;;;;4988475;28;20182;-86
2023/01/27 05:59:05;;;;;;;73.25;10.07;;;3.40;99.90;;;;;;5000431;28;20147;-86
2023/01/27 06:01:36;;;;;;;73.90;11.20;;;3.40;99.90;;;;;;4999251;28;20183;-86
2023/01/27 06:04:03;;;;;;;73.70;9.90;;;3.50;99.90;;;;;;5000372;28;20214;-86
2023/01/27 06:06:39;;;;;;;74.97;9.90;;;3.40;99.90;;;;;;4983003;28;20190;-86
2023/01/27 06:09:11;;;;;;;76.35;10.57;;;3.50;99.90;;;;;;4990836;28;20158;-86
2023/01/27 06:11:40;;;;;;;76.40;10.45;;;3.40;99.90;;;;;;4990092;28;20186;-86
2023/01/27 06:14:05;;;;;;;77.30;10.75;;;3.40;99.90;;;;;;4990769;28;20170;-86
2023/01/27 06:16:42;;;;;;;75.60;10.50;;;3.40;99.90;;;;;;5007577;28;20238;-85
2023/01/27 06:19:09;;;;;;;75.10;9.88;;;3.50;99.90;;;;;;5007367;28;20172;-85
2023/01/27 06:21:35;;;;;;;71.95;10.23;;;3.50;99.90;;;;;;4989679;28;20285;-85
2023/01/27 06:24:00;;;;;;;73.90;11.43;;;3.50;99.90;;;;;;5007282;28;20252;-85
2023/01/27 06:26:26;;;;;;;76.50;11.10;;;3.50;99.90;;;;;;5007358;28;20194;-85
2023/01/27 06:28:54;;;;;;;80.00;11.50;;;3.50;99.90;;;;;;5007300;28;20425;-85
2023/01/27 06:31:21;;;;;;;77.00;11.15;;;3.40;99.90;;;;;;4989489;28;20257;-85
2023/01/27 06:33:47;;;;;;;82.07;10.85;;;3.50;99.90;;;;;;4989388;28;20166;-85
2023/01/27 06:36:17;;;;;;;77.25;9.60;;;3.60;99.90;;;;;;5007353;28;20162;-85
2023/01/27 06:38:43;;;;;;;74.80;10.95;;;3.60;99.90;;;;;;5007124;28;20522;-85
2023/01/27 06:41:12;;;;;;;74.90;10.40;;;3.60;99.90;;;;;;5007024;28;20198;-85
2023/01/27 06:43:38;;;;;;;76.00;12.02;;;3.60;99.90;;;;;;4988611;28;20634;-85
2023/01/27 06:46:11;;;;;;;75.83;12.47;;;3.60;99.90;;;;;;5006987;28;20198;-85
2023/01/27 06:48:37;;;;;;;75.68;12.65;;;3.50;99.90;;;;;;4988992;28;20165;-85
2023/01/27 06:51:03;;;;;;;73.70;12.18;;;3.50;99.90;;;;;;5006349;28;20250;-85
2023/01/27 06:53:30;;;;;;;77.18;11.85;;;3.50;99.90;;;;;;4989153;28;20178;-85
2023/01/27 06:55:57;;;;;;;77.57;12.48;;;3.50;99.90;;;;;;5006768;28;20257;-85
2023/01/27 06:58:24;;;;;;;74.82;11.32;;;3.50;99.90;;;;;;4988961;28;20240;-85
2023/01/27 07:00:52;;;;;;;76.70;12.45;;;3.50;99.90;;;;;;5005741;28;20190;-85
2023/01/27 07:03:20;;;;;;;78.30;12.30;;;3.50;99.90;;;;;;5006323;28;20170;-85
2023/01/27 07:05:46;;;;;;;75.63;12.57;;;3.50;99.90;;;;;;4988522;28;20669;-85
2023/01/27 07:08:12;;;;;;;80.23;12.83;;;3.50;99.90;;;;;;4988175;28;20158;-85
2023/01/27 07:10:38;;;;;;;73.40;10.80;;;3.50;99.90;;;;;;5005745;28;20662;-85
2023/01/27 07:13:10;;;;;;;76.47;11.57;;;3.60;99.90;;;;;;4987924;28;20166;-83
2023/01/27 07:15:36;;;;;;;76.18;11.68;;;3.50;99.90;;;;;;4988854;28;20421;-84
2023/01/27 07:18:02;;;;;;;78.18;12.05;;;3.60;99.90;;;;;;4988389;28;20170;-84
2023/01/27 07:20:36;;;;;;;77.95;12.13;;;3.60;99.90;;;;;;5001770;28;20187;-84
2023/01/27 07:23:04;;;;;;;76.78;11.15;;;3.60;99.90;;;;;;5003205;28;20589;-85
2023/01/27 07:25:39;;;;;;;77.68;11.50;;;3.60;99.90;;;;;;5001938;28;20186;-85
2023/01/27 07:28:05;;;;;;;75.13;12.18;;;3.60;99.90;;;;;;4985296;28;20193;-85
2023/01/27 07:30:32;;;;;;;78.55;11.88;;;3.60;99.90;;;;;;5002653;28;20186;-85
2023/01/27 07:33:07;;;;;;;75.38;11.45;;;3.70;99.90;;;;;;4984701;28;20541;-85
2023/01/27 07:35:34;;;;;;;77.32;12.38;;;3.70;99.90;;;;;;4985354;28;20189;-85
2023/01/27 07:38:00;;;;;;;78.47;12.70;;;3.60;99.90;;;;;;4984994;28;20534;-85
2023/01/27 07:40:26;;;;;;;76.27;12.97;;;3.60;99.90;;;;;;5002234;28;20186;-85
2023/01/27 07:42:52;;;;;;;81.70;13.60;;;3.60;99.90;;;;;;5001782;28;20414;-84
2023/01/27 07:45:19;;;;;;;79.07;13.67;;;3.60;99.90;;;;;;4985124;28;20208;-84
2023/01/27 07:47:44;;;;;;;77.35;13.32;;;3.70;99.90;;;;;;5002771;28;20181;-85
2023/01/27 07:50:13;;;;;;;76.50;12.00;;;3.70;99.90;;;;;;5003207;28;20191;-85
2023/01/27 07:52:42;;;;;;;76.57;12.15;;;3.80;99.90;;;;;;4984160;28;20669;-85
2023/01/27 07:55:08;;;;;;;79.97;14.45;;;3.80;99.90;;;;;;4985064;28;20559;-85
2023/01/27 07:57:34;;;;;;;86.27;13.00;;;3.80;99.90;;;;;;4985022;28;20175;-85
2023/01/27 07:59:59;;;;;;;79.20;13.57;;;3.80;99.90;;;;;;5002359;28;20866;-85
2023/01/27 08:02:27;;;;;;;78.13;13.63;;;3.80;99.90;;;;;;4984325;28;20167;-83
2023/01/27 08:04:53;;;;;;;78.25;13.80;;;3.90;99.90;;;;;;4985410;28;20650;-84
2023/01/27 08:07:19;;;;;;;80.18;13.00;;;3.90;99.90;;;;;;5002554;28;20174;-85
2023/01/27 08:09:45;;;;;;;77.88;13.95;;;3.90;99.90;;;;;;5002557;28;20186;-85
2023/01/27 08:12:10;;;;;;;75.67;12.87;;;4.00;99.90;;;;;;5002427;28;20654;-85
2023/01/27 08:14:36;;;;;;;78.70;14.10;;;4.00;99.90;;;;;;5002143;28;20174;-84
2023/01/27 08:17:02;;;;;;;78.40;13.40;;;4.00;99.90;;;;;;4985347;28;20162;-85
2023/01/27 08:19:27;;;;;;;77.87;11.90;;;4.00;99.90;;;;;;5002411;28;20161;-85
2023/01/27 08:21:53;;;;;;;81.97;12.43;;;4.00;99.90;;;;;;5001931;28;20193;-84
2023/01/27 08:24:21;;;;;;;77.10;11.53;;;4.10;99.90;;;;;;4984828;28;20206;-85
2023/01/27 08:26:47;;;;;;;75.72;11.52;;;4.10;99.90;;;;;;5001807;28;20174;-84
2023/01/27 08:29:12;;;;;;;76.07;12.77;;;4.10;99.90;;;;;;5001474;28;20650;-84
2023/01/27 08:31:40;;;;;;;74.77;12.77;;;4.20;99.90;;;;;;5000372;28;20186;-84
2023/01/27 08:34:06;;;;;;;79.30;13.80;;;4.20;99.90;;;;;;5001437;28;20210;-84
2023/01/27 08:36:32;;;;;;;75.50;11.77;;;4.30;99.90;;;;;;5001783;28;20163;-84
2023/01/27 08:38:57;;;;;;;77.83;12.77;;;4.30;99.90;;;;;;5001737;28;20179;-85
2023/01/27 08:41:25;;;;;;;78.10;14.10;;;4.30;99.90;;;;;;5001821;28;20988;-85
2023/01/27 08:43:52;;;;;;;74.30;12.82;;;4.40;99.90;;;;;;5000944;28;20167;-85
2023/01/27 08:46:18;;;;;;;75.20;13.07;;;4.40;99.90;;;;;;4983612;28;20214;-84
2023/01/27 08:48:44;;;;;;;72.90;12.20;;;4.40;99.90;;;;;;5001476;28;20174;-85
2023/01/27 08:51:12;;;;;;;73.77;11.20;;;4.40;99.90;;;;;;5000987;28;20232;-84
2023/01/27 08:53:39;;;;;;;73.88;11.40;;;4.50;99.90;;;;;;5002193;28;20181;-84
2023/01/27 08:56:08;;;;;;;76.97;13.60;;;4.50;99.90;;;;;;4983945;28;20549;-84
2023/01/27 08:58:36;;;;;;;73.60;12.43;;;4.50;99.90;;;;;;4983875;28;20174;-85
2023/01/27 09:01:04;;;;;;;73.70;12.30;;;4.60;99.90;;;;;;4983814;28;20217;-85
2023/01/27 09:03:31;;;;;;;75.18;13.00;;;4.60;99.90;;;;;;4984389;28;20170;-85
2023/01/27 09:05:57;;;;;;;74.47;12.30;;;4.60;99.90;;;;;;4983820;28;20670;-85
2023/01/27 09:08:23;;;;;;;75.05;14.43;;;4.70;99.90;;;;;;4983323;28;20334;-85
2023/01/27 09:10:49;;;;;;;73.40;13.63;;;4.80;99.90;;;;;;4982736;28;20197;-84
2023/01/27 09:13:15;;;;;;;73.70;13.20;;;4.80;99.90;;;;;;4982781;28;20630;-85
2023/01/27 09:15:42;;;;;;;77.18;13.32;;;4.90;99.90;;;;;;4982714;28;20170;-84
2023/01/27 09:18:09;;;;;;;77.18;13.35;;;5.00;99.90;;;;;;4982559;28;20642;-84
2023/01/27 09:20:36;;;;;;;72.60;11.73;;;5.10;99.90;;;;;;4999991;28;20191;-84
2023/01/27 09:23:02;;;;;;;75.30;13.20;;;5.20;99.90;;;;;;5000325;28;20167;-84
2023/01/27 09:25:28;;;;;;;72.40;10.65;;;5.20;99.90;;;;;;4982779;28;20198;-84
2023/01/27 09:27:55;;;;;;;72.90;10.33;;;5.20;99.90;;;;;;4982596;28;20657;-84
2023/01/27 09:30:21;;;;;;;70.97;9.40;;;5.20;99.90;;;;;;4982895;28;20255;-85
2023/01/27 09:32:47;;;;;;;71.25;8.65;;;5.20;99.90;;;;;;4983190;28;20166;-84
2023/01/27 09:35:13;;;;;;;69.67;7.63;;;5.20;99.90;;;;;;5000546;28;20216;-85
2023/01/27 09:37:54;;;;;;;70.10;8.90;;;5.20;99.90;;;;;;4983505;28;20174;-85
2023/01/27 09:40:25;;;;;;;69.88;8.80;;;5.20;99.90;;;;;;4984276;28;20445;-85
2023/01/27 09:43:21;;;;;;;73.10;8.23;;;5.20;99.90;;;;;;4999899;28;20257;-85
2023/01/27 09:46:11;;;;;;;71.10;9.02;;;5.20;99.90;;;;;;4983330;28;20276;-85
2023/01/27 09:49:05;;;;;;;69.82;7.68;;;5.20;99.90;;;;;;5000744;28;20155;-85
2023/01/27 09:51:49;;;;;;;66.82;7.25;;;5.20;99.90;;;;;;4983415;28;20194;-85
2023/01/27 09:54:23;;;;;;;68.18;7.55;;;5.30;99.90;;;;;;4984188;28;20186;-85
2023/01/27 09:57:02;;;;;;;68.50;7.70;;;5.40;99.90;;;;;;4981942;28;20240;-84
2023/01/27 09:59:33;;;;;;;69.05;6.65;;;5.50;99.90;;;;;;4982800;28;20163;-84
2023/01/27 10:02:14;;;;;;;74.30;7.72;;;5.40;99.90;;;;;;5000031;28;20178;-84
2023/01/27 10:05:20;;;;;;;66.60;5.70;;;5.40;99.90;;;;;;4982991;28;20198;-85
2023/01/27 10:07:55;;;;;;;67.85;6.47;;;5.50;99.90;;;;;;4982316;28;20170;-84
2023/01/27 10:10:26;;;;;;;66.75;7.70;;;5.50;99.90;;;;;;5000360;28;20268;-85
2023/01/27 10:13:21;;;;;;;67.22;6.78;;;5.50;99.90;;;;;;5000305;28;20181;-84
2023/01/27 10:16:04;;;;;;;67.45;6.90;;;5.60;99.90;;;;;;4982323;28;20527;-85
2023/01/27 10:18:36;;;;;;;67.40;6.50;;;5.60;99.90;;;;;;4982062;28;20154;-84
2023/01/27 10:21:23;;;;;;;69.63;6.80;;;5.60;99.90;;;;;;4982237;28;20186;-84
2023/01/27 10:24:43;;;;;;;68.10;7.40;;;5.50;99.90;;;;;;4999752;28;20154;-84
2023/01/27 10:27:15;;;;;;;66.47;6.50;;;5.60;99.90;;;;;;4997081;28;20688;-84
2023/01/27 10:29:48;;;;;;;66.40;6.95;;;5.60;99.90;;;;;;5000010;28;20166;-85
2023/01/27 10:32:27;;;;;;;67.03;5.80;;;5.70;99.90;;;;;;4982417;28;20190;-84
2023/01/27 10:35:14;;;;;;;66.10;6.20;;;5.70;99.90;;;;;;4999802;28;20147;-85
2023/01/27 10:38:06;;;;;;;65.68;6.00;;;5.70;99.90;;;;;;4982265;28;20173;-85
2023/01/27 10:41:26;;;;;;;65.47;5.97;;;5.80;99.90;;;;;;5000002;28;20190;-85
2023/01/27 10:44:20;;;;;;;66.50;6.15;;;5.80;99.90;;;;;;4957063;28;20182;-84
2023/01/27 10:47:23;;;;;;;66.05;5.78;;;5.80;99.90;;;;;;4982522;28;20166;-85
2023/01/27 10:49:54;;;;;;;66.45;6.15;;;5.80;99.90;;;;;;5000295;28;20178;-85
2023/01/27 10:52:26;;;;;;;67.18;6.30;;;5.80;99.90;;;;;;4999913;28;20186;-84
2023/01/27 10:55:05;;;;;;;67.07;6.10;;;5.70;99.90;;;;;;5002270;28;20159;-85
2023/01/27 10:57:40;;;;;;;66.13;5.82;;;5.70;99.90;;;;;;5003439;28;20159;-85
2023/01/27 11:00:40;;;;;;;67.35;6.55;;;5.70;99.90;;;;;;5003404;28;20608;-85
2023/01/27 11:03:25;;;;;;;66.25;7.13;;;5.70;99.90;;;;;;4992823;28;20678;-85
2023/01/27 11:06:05;;;;;;;66.28;5.85;;;5.80;99.90;;;;;;5003073;28;20186;-85
2023/01/27 11:08:38;;;;;;;66.15;6.63;;;5.80;99.90;;;;;;4985620;28;20154;-84
2023/01/27 11:14:09;;;;;;;67.28;6.45;;;5.70;99.90;;;;;;5003331;28;20234;-85
2023/01/27 11:16:37;;;;;;;66.47;6.15;;;5.70;99.90;;;;;;5002502;28;20229;-85
2023/01/27 11:19:28;;;;;;;66.80;9.68;;;5.80;99.90;;;;;;4985678;28;20626;-85
2023/01/27 11:21:55;;;;;;;66.68;6.60;;;5.90;99.90;;;;;;4979457;28;20214;-85
2023/01/27 11:24:32;;;;;;;65.63;5.97;;;6.00;99.90;;;;;;5003250;28;20171;-83
2023/01/27 11:29:57;;;;;;;66.97;5.47;;;6.00;99.90;;;;;;5074415;22;20261;-84
2023/01/27 11:32:43;;;;;;;65.10;5.93;;;6.10;99.90;;;;;;4974906;28;20163;-85
2023/01/27 11:35:16;;;;;;;66.50;5.70;;;6.10;99.90;;;;;;4990560;28;20159;-84
2023/01/27 11:37:49;;;;;;;65.50;5.10;;;6.10;99.90;;;;;;4991048;28;20220;-84
2023/01/27 11:40:40;;;;;;;65.05;5.15;;;6.20;99.90;;;;;;4972541;28;20239;-83
2023/01/27 11:43:27;;;;;;;64.85;4.88;;;6.20;99.90;;;;;;4988320;28;20539;-83
2023/01/27 11:46:04;;;;;;;64.47;4.75;;;6.20;99.90;;;;;;4983948;28;20252;-83
2023/01/27 11:48:52;;;;;;;66.00;5.55;;;6.20;99.90;;;;;;4971120;28;20159;-83
2023/01/27 11:51:21;;;;;;;64.53;5.63;;;6.10;99.90;;;;;;4971577;28;20198;-83
2023/01/27 11:54:05;;;;;;;64.60;5.10;;;6.00;99.90;;;;;;4971484;28;20182;-83
2023/01/27 11:56:43;;;;;;;65.55;5.15;;;6.00;99.90;;;;;;4988744;28;20151;-83
2023/01/27 11:59:10;;;;;;;64.35;4.55;;;6.10;99.90;;;;;;4971157;28;20171;-83
2023/01/27 12:02:05;;;;;;;64.60;5.05;;;6.20;99.90;;;;;;4988156;28;20187;-83
2023/01/27 12:05:04;;;;;;;64.22;4.68;;;6.20;99.90;;;;;;4964421;28;20175;-83
2023/01/27 12:08:01;;;;;;;64.63;4.78;;;6.20;99.90;;;;;;4987164;28;20170;-83
2023/01/27 12:10:41;;;;;;;64.25;4.72;;;6.20;99.90;;;;;;4986929;28;20175;-83
2023/01/27 12:13:08;;;;;;;65.35;4.93;;;6.10;99.90;;;;;;4970165;28;20158;-83
2023/01/27 12:15:36;;;;;;;64.00;5.18;;;6.00;99.90;;;;;;4971320;28;20175;-83
2023/01/27 12:18:13;;;;;;;63.72;4.63;;;5.90;99.90;;;;;;4988300;28;20163;-83
2023/01/27 12:20:50;;;;;;;65.20;4.63;;;6.00;99.90;;;;;;4990235;28;20186;-83
2023/01/27 12:23:23;;;;;;;65.72;5.32;;;6.10;99.90;;;;;;4989272;28;20143;-84
2023/01/27 12:26:00;;;;;;;65.50;5.63;;;6.10;99.90;;;;;;4989815;28;20243;-83
2023/01/27 12:28:41;;;;;;;64.07;4.38;;;6.10;99.90;;;;;;4972384;28;20269;-83
2023/01/27 12:31:16;;;;;;;65.15;4.65;;;6.20;99.90;;;;;;4970948;28;20285;-83
2023/01/27 12:33:48;;;;;;;64.30;4.65;;;6.30;99.90;;;;;;4988379;28;20155;-83
2023/01/27 12:36:16;;;;;;;65.10;4.70;;;6.20;99.90;;;;;;4990360;28;20156;-83
2023/01/27 12:38:54;;;;;;;64.50;4.55;;;6.20;99.90;;;;;;4991170;28;20160;-83
2023/01/27 12:41:26;;;;;;;64.28;4.13;;;6.20;99.90;;;;;;4989501;28;20745;-83
2023/01/27 12:43:59;;;;;;;64.68;3.90;;;6.20;99.90;;;;;;4973031;28;20191;-83
2023/01/27 12:46:30;;;;;;;63.70;3.40;;;6.20;99.90;;;;;;4989797;28;20187;-83
2023/01/27 12:49:20;;;;;;;63.60;4.10;;;6.20;99.90;;;;;;4989132;28;20180;-83
2023/01/27 12:51:55;;;;;;;64.05;4.13;;;6.10;99.90;;;;;;4970485;28;20190;-83
2023/01/27 12:54:26;;;;;;;63.58;3.80;;;6.10;99.90;;;;;;4988204;28;20631;-83
2023/01/27 12:56:54;;;;;;;64.55;3.70;;;6.10;99.90;;;;;;4971702;28;20177;-83
2023/01/27 12:59:28;;;;;;;63.60;4.00;;;6.10;99.90;;;;;;4987514;28;20167;-84
2023/01/27 13:02:19;;;;;;;65.65;4.15;;;6.10;99.90;;;;;;4987940;28;20194;-83
2023/01/27 13:05:17;;;;;;;64.10;4.45;;;6.20;99.90;;;;;;4970157;28;20202;-83
2023/01/27 13:07:57;;;;;;;63.70;3.53;;;6.30;99.90;;;;;;4985862;28;20238;-83
2023/01/27 13:10:26;;;;;;;64.28;4.15;;;6.40;99.90;;;;;;4970806;28;20230;-83
2023/01/27 13:12:56;;;;;;;67.80;4.20;;;6.40;99.90;;;;;;4987240;28;20163;-83
2023/01/27 13:15:28;;;;;;;68.80;5.75;;;6.40;99.90;;;;;;4954601;28;20175;-83
2023/01/27 13:18:09;;;;;;;;;;;;;;;;;;;;;
2023/01/27 13:20:45;;;;;;;63.65;4.38;;;6.40;99.90;;;;;;4988106;28;20274;-83
2023/01/27 13:23:24;;;;;;;66.20;4.40;;;6.30;99.90;;;;;;4987439;28;20156;-83
2023/01/27 13:26:16;;;;;;;64.35;3.65;;;6.30;99.90;;;;;;4970194;28;20219;-83
2023/01/27 13:29:33;;;;;;;65.45;4.10;;;6.30;99.90;;;;;;4962774;28;20650;-83
2023/01/27 13:32:33;;;;;;;63.80;3.92;;;6.30;99.90;;;;;;4935380;28;20200;-83
2023/01/27 13:35:18;;;;;;;64.13;4.57;;;6.30;99.90;;;;;;4973113;28;20191;-84
2023/01/27 13:37:53;;;;;;;64.63;5.10;;;6.30;99.90;;;;;;4983908;28;20603;-83
2023/01/27 13:40:24;;;;;;;64.60;4.78;;;6.20;99.90;;;;;;4984295;28;20189;-83
2023/01/27 13:42:55;;;;;;;64.10;4.47;;;6.20;99.90;;;;;;4986358;28;20163;-82
2023/01/27 13:45:40;;;;;;;65.28;4.68;;;6.20;99.90;;;;;;4969021;28;20205;-83
2023/01/27 13:48:43;;;;;;;63.88;4.20;;;6.10;99.90;;;;;;4986812;28;20222;-83
2023/01/27 13:51:14;;;;;;;64.13;4.97;;;6.10;99.90;;;;;;4980227;28;20207;-83